createdAt,value
2022-09-26T00:00:28.297Z,18.48
2022-09-26T00:01:28.447Z,18.45
2022-09-26T00:02:28.363Z,18.48
2022-09-26T00:03:28.308Z,18.47
2022-09-26T00:04:32.573Z,18.47
2022-09-26T00:05:28.290Z,18.50
2022-09-26T00:06:28.301Z,18.45
2022-09-26T00:07:28.306Z,18.48
2022-09-26T00:08:28.306Z,18.45
2022-09-26T00:09:28.274Z,18.51
2022-09-26T00:10:28.278Z,18.48
2022-09-26T00:11:28.271Z,18.48
2022-09-26T00:12:28.267Z,18.39
2022-09-26T00:13:28.271Z,18.42
2022-09-26T00:14:28.251Z,18.45
2022-09-26T00:15:28.264Z,18.45
2022-09-26T00:16:28.295Z,18.48
2022-09-26T00:17:28.272Z,18.42
2022-09-26T00:18:28.248Z,18.48
2022-09-26T00:19:28.248Z,18.39
2022-09-26T00:20:28.244Z,18.48
2022-09-26T00:21:28.241Z,18.41
2022-09-26T00:22:28.249Z,18.41
2022-09-26T00:23:28.245Z,18.47
2022-09-26T00:24:28.261Z,18.48
2022-09-26T00:25:28.247Z,18.50
2022-09-26T00:26:28.221Z,18.45
2022-09-26T00:27:28.220Z,18.47
2022-09-26T00:28:28.225Z,18.42
2022-09-26T00:29:28.220Z,18.41
2022-09-26T00:30:28.265Z,18.45
2022-09-26T00:31:28.213Z,18.47
2022-09-26T00:32:28.215Z,18.42
2022-09-26T00:33:28.200Z,18.44
2022-09-26T00:34:28.200Z,18.44
2022-09-26T00:35:28.210Z,18.42
2022-09-26T00:36:37.461Z,18.48
2022-09-26T00:37:28.203Z,18.42
2022-09-26T00:38:28.194Z,18.50
2022-09-26T00:39:28.193Z,18.39
2022-09-26T00:40:28.375Z,18.45
2022-09-26T00:41:28.191Z,18.48
2022-09-26T00:42:28.178Z,18.42
2022-09-26T00:43:28.175Z,18.44
2022-09-26T00:44:28.179Z,18.42
2022-09-26T00:45:28.174Z,18.44
2022-09-26T00:46:28.240Z,18.44
2022-09-26T00:47:28.168Z,18.45
2022-09-26T00:48:28.163Z,18.42
2022-09-26T00:49:28.170Z,18.39
2022-09-26T00:50:28.155Z,18.48
2022-09-26T00:51:28.165Z,18.44
2022-09-26T00:52:28.159Z,18.39
2022-09-26T00:53:28.148Z,18.44
2022-09-26T00:54:28.141Z,18.47
2022-09-26T00:55:28.148Z,18.45
2022-09-26T00:56:28.174Z,18.47
2022-09-26T00:57:28.142Z,18.42
2022-09-26T00:58:28.131Z,18.50
2022-09-26T00:59:28.128Z,18.37
2022-09-26T01:00:28.141Z,18.45
2022-09-26T01:01:28.297Z,18.41
2022-09-26T01:02:28.238Z,18.48
2022-09-26T01:03:28.124Z,18.44
2022-09-26T01:04:28.118Z,18.36
2022-09-26T01:05:28.116Z,18.39
2022-09-26T01:06:28.122Z,18.37
2022-09-26T01:07:28.133Z,18.39
2022-09-26T01:08:28.099Z,18.42
2022-09-26T01:09:28.096Z,18.42
2022-09-26T01:10:28.092Z,18.42
2022-09-26T01:11:28.095Z,18.51
2022-09-26T01:12:28.115Z,18.39
2022-09-26T01:13:28.082Z,18.41
2022-09-26T01:14:28.085Z,18.44
2022-09-26T01:15:28.092Z,18.45
2022-09-26T01:16:28.168Z,18.39
2022-09-26T01:17:28.080Z,18.39
2022-09-26T01:18:28.083Z,18.35
2022-09-26T01:19:28.093Z,18.47
2022-09-26T01:20:28.081Z,18.44
2022-09-26T01:21:28.059Z,18.47
2022-09-26T01:22:28.065Z,18.45
2022-09-26T01:23:28.054Z,18.45
2022-09-26T01:24:28.062Z,18.42
2022-09-26T01:25:28.053Z,18.37
2022-09-26T01:26:28.057Z,18.48
2022-09-26T01:27:28.057Z,18.39
2022-09-26T01:28:28.061Z,18.39
2022-09-26T01:29:28.054Z,18.39
2022-09-26T01:30:28.196Z,18.33
2022-09-26T01:31:28.040Z,18.42
2022-09-26T01:32:28.035Z,18.41
2022-09-26T01:33:28.037Z,18.41
2022-09-26T01:34:28.042Z,18.42
2022-09-26T01:35:28.023Z,18.35
2022-09-26T01:36:28.022Z,18.39
2022-09-26T01:37:28.011Z,18.39
2022-09-26T01:38:28.031Z,18.35
2022-09-26T01:39:28.021Z,18.35
2022-09-26T01:40:28.027Z,18.42
2022-09-26T01:41:28.003Z,18.39
2022-09-26T01:42:28.006Z,18.35
2022-09-26T01:43:28.003Z,18.35
2022-09-26T01:44:28.117Z,18.42
2022-09-26T01:45:28.002Z,18.33
2022-09-26T01:46:28.102Z,18.42
2022-09-26T01:47:27.992Z,18.33
2022-09-26T01:48:27.990Z,18.42
2022-09-26T01:49:27.991Z,18.37
2022-09-26T01:50:27.987Z,18.29
2022-09-26T01:51:27.976Z,18.36
2022-09-26T01:52:27.978Z,18.39
2022-09-26T01:53:27.986Z,18.36
2022-09-26T01:54:27.977Z,18.42
2022-09-26T01:55:27.979Z,18.33
2022-09-26T01:56:27.971Z,18.42
2022-09-26T01:57:27.962Z,18.37
2022-09-26T01:58:27.964Z,18.42
2022-09-26T01:59:27.974Z,18.41
2022-09-26T02:00:28.059Z,18.39
2022-09-26T02:01:28.009Z,18.39
2022-09-26T02:02:28.036Z,18.32
2022-09-26T02:03:27.948Z,18.33
2022-09-26T02:04:27.939Z,18.37
2022-09-26T02:05:27.935Z,18.35
2022-09-26T02:06:28.088Z,18.35
2022-09-26T02:07:27.932Z,18.39
2022-09-26T02:08:27.939Z,18.36
2022-09-26T02:09:27.927Z,18.37
2022-09-26T02:10:27.949Z,18.35
2022-09-26T02:11:27.918Z,18.37
2022-09-26T02:12:27.921Z,18.39
2022-09-26T02:13:27.908Z,18.35
2022-09-26T02:14:27.917Z,18.37
2022-09-26T02:16:10.243Z,18.36
2022-09-26T02:17:10.134Z,18.36
2022-09-26T02:18:10.134Z,18.30
2022-09-26T02:19:10.122Z,18.33
2022-09-26T02:20:10.140Z,18.39
2022-09-26T02:21:10.220Z,18.41
2022-09-26T02:22:10.112Z,18.33
2022-09-26T02:23:10.123Z,18.36
2022-09-26T02:24:10.107Z,18.33
2022-09-26T02:25:10.128Z,18.35
2022-09-26T02:26:10.091Z,18.41
2022-09-26T02:27:10.099Z,18.35
2022-09-26T02:28:10.098Z,18.35
2022-09-26T02:29:10.089Z,18.41
2022-09-26T02:30:10.100Z,18.36
2022-09-26T02:31:10.087Z,18.41
2022-09-26T02:32:10.159Z,18.41
2022-09-26T02:33:10.091Z,18.37
2022-09-26T02:34:10.091Z,18.33
2022-09-26T02:35:52.645Z,18.41
2022-09-26T02:36:52.635Z,18.39
2022-09-26T02:37:52.639Z,18.33
2022-09-26T02:38:52.635Z,18.33
2022-09-26T02:39:52.633Z,18.23
2022-09-26T02:40:52.710Z,18.33
2022-09-26T02:41:52.637Z,18.41
2022-09-26T02:42:52.623Z,18.29
2022-09-26T02:43:52.623Z,18.42
2022-09-26T02:44:52.614Z,18.36
2022-09-26T02:45:52.680Z,18.42
2022-09-26T02:46:52.626Z,18.33
2022-09-26T02:47:52.650Z,18.35
2022-09-26T02:48:52.607Z,18.32
2022-09-26T02:49:52.607Z,18.35
2022-09-26T02:50:52.608Z,18.33
2022-09-26T02:51:52.605Z,18.27
2022-09-26T02:52:52.605Z,18.33
2022-09-26T02:53:52.598Z,18.35
2022-09-26T02:54:52.591Z,18.32
2022-09-26T02:55:52.589Z,18.27
2022-09-26T02:56:52.582Z,18.32
2022-09-26T02:57:52.584Z,18.35
2022-09-26T02:58:52.590Z,18.33
2022-09-26T02:59:52.595Z,18.33
2022-09-26T03:00:52.659Z,18.36
2022-09-26T03:01:52.576Z,18.32
2022-09-26T03:02:52.576Z,18.29
2022-09-26T03:03:52.585Z,18.29
2022-09-26T03:04:52.662Z,18.32
2022-09-26T03:05:52.557Z,18.35
2022-09-26T03:06:52.585Z,18.33
2022-09-26T03:07:52.561Z,18.36
2022-09-26T03:08:52.547Z,18.33
2022-09-26T03:09:52.541Z,18.26
2022-09-26T03:10:52.544Z,18.32
2022-09-26T03:11:52.539Z,18.25
2022-09-26T03:12:52.539Z,18.32
2022-09-26T03:13:52.550Z,18.27
2022-09-26T03:14:57.885Z,18.27
2022-09-26T03:15:52.523Z,18.26
2022-09-26T03:16:52.590Z,18.35
2022-09-26T03:17:52.525Z,18.29
2022-09-26T03:18:52.521Z,18.29
2022-09-26T03:19:52.545Z,18.29
2022-09-26T03:20:52.509Z,18.37
2022-09-26T03:21:52.515Z,18.32
2022-09-26T03:22:52.514Z,18.30
2022-09-26T03:23:52.516Z,18.33
2022-09-26T03:24:52.524Z,18.25
2022-09-26T03:25:52.504Z,18.32
2022-09-26T03:26:52.491Z,18.32
2022-09-26T03:27:52.494Z,18.35
2022-09-26T03:28:52.493Z,18.30
2022-09-26T03:29:52.496Z,18.29
2022-09-26T03:30:52.478Z,18.30
2022-09-26T03:31:52.545Z,18.32
2022-09-26T03:32:52.482Z,18.29
2022-09-26T03:33:52.488Z,18.29
2022-09-26T03:34:52.476Z,18.29
2022-09-26T03:35:52.490Z,18.33
2022-09-26T03:36:52.461Z,18.33
2022-09-26T03:37:52.477Z,18.33
2022-09-26T03:38:52.457Z,18.27
2022-09-26T03:39:52.472Z,18.26
2022-09-26T03:40:52.579Z,18.25
2022-09-26T03:41:52.453Z,18.32
2022-09-26T03:42:52.449Z,18.26
2022-09-26T03:43:52.452Z,18.29
2022-09-26T03:44:52.463Z,18.30
2022-09-26T03:45:52.523Z,18.36
2022-09-26T03:46:52.440Z,18.29
2022-09-26T03:47:52.447Z,18.30
2022-09-26T03:48:52.423Z,18.26
2022-09-26T03:49:52.428Z,18.29
2022-09-26T03:50:52.416Z,18.32
2022-09-26T03:51:52.517Z,18.32
2022-09-26T03:52:52.413Z,18.33
2022-09-26T03:53:52.422Z,18.33
2022-09-26T03:54:52.423Z,18.29
2022-09-26T03:55:52.413Z,18.33
2022-09-26T03:56:52.424Z,18.29
2022-09-26T03:57:52.403Z,18.32
2022-09-26T03:58:52.405Z,18.25
2022-09-26T03:59:52.396Z,18.27
2022-09-26T04:00:52.487Z,18.29
2022-09-26T04:01:52.486Z,18.26
2022-09-26T04:02:52.382Z,18.32
2022-09-26T04:03:52.386Z,18.30
2022-09-26T04:04:52.381Z,18.29
2022-09-26T04:05:52.391Z,18.33
2022-09-26T04:06:52.374Z,18.33
2022-09-26T04:07:52.397Z,18.29
2022-09-26T04:08:52.379Z,18.29
2022-09-26T04:09:52.370Z,18.29
2022-09-26T04:10:52.365Z,18.30
2022-09-26T04:11:52.514Z,18.32
2022-09-26T04:12:52.361Z,18.33
2022-09-26T04:13:53.768Z,18.25
2022-09-26T04:14:52.349Z,18.30
2022-09-26T04:15:52.357Z,18.32
2022-09-26T04:16:52.594Z,18.30
2022-09-26T04:17:52.357Z,18.30
2022-09-26T04:18:52.346Z,18.27
2022-09-26T04:19:52.331Z,18.27
2022-09-26T04:20:52.364Z,18.30
2022-09-26T04:21:52.337Z,18.30
2022-09-26T04:22:52.339Z,18.29
2022-09-26T04:23:52.348Z,18.30
2022-09-26T04:24:52.317Z,18.30
2022-09-26T04:25:52.321Z,18.26
2022-09-26T04:26:52.343Z,18.26
2022-09-26T04:27:52.315Z,18.30
2022-09-26T04:28:52.404Z,18.23
2022-09-26T04:29:52.301Z,18.33
2022-09-26T04:30:52.317Z,18.30
2022-09-26T04:31:52.428Z,18.29
2022-09-26T04:32:52.348Z,18.33
2022-09-26T04:33:52.303Z,18.27
2022-09-26T04:34:52.287Z,18.23
2022-09-26T04:35:52.285Z,18.29
2022-09-26T04:36:52.290Z,18.29
2022-09-26T04:37:52.298Z,18.36
2022-09-26T04:38:52.278Z,18.25
2022-09-26T04:39:52.305Z,18.27
2022-09-26T04:40:52.344Z,18.33
2022-09-26T04:41:52.280Z,18.26
2022-09-26T04:42:52.270Z,18.25
2022-09-26T04:43:52.265Z,18.32
2022-09-26T04:44:52.268Z,18.25
2022-09-26T04:45:52.315Z,18.29
2022-09-26T04:46:52.255Z,18.27
2022-09-26T04:47:52.249Z,18.25
2022-09-26T04:48:52.255Z,18.25
2022-09-26T04:49:52.245Z,18.21
2022-09-26T04:50:52.252Z,18.30
2022-09-26T04:51:52.238Z,18.37
2022-09-26T04:52:52.234Z,18.26
2022-09-26T04:53:52.238Z,18.33
2022-09-26T04:54:52.241Z,18.25
2022-09-26T04:55:52.247Z,18.27
2022-09-26T04:56:52.235Z,18.29
2022-09-26T04:57:52.230Z,18.32
2022-09-26T04:58:52.228Z,18.32
2022-09-26T04:59:52.219Z,18.27
2022-09-26T05:00:52.316Z,18.23
2022-09-26T05:01:52.250Z,18.32
2022-09-26T05:02:52.212Z,18.29
2022-09-26T05:03:52.208Z,18.30
2022-09-26T05:04:52.210Z,18.26
2022-09-26T05:05:52.209Z,18.32
2022-09-26T05:06:52.205Z,18.23
2022-09-26T05:07:52.199Z,18.26
2022-09-26T05:08:52.203Z,18.26
2022-09-26T05:09:52.189Z,18.29
2022-09-26T05:10:52.191Z,18.29
2022-09-26T05:11:52.228Z,18.29
2022-09-26T05:12:52.180Z,18.27
2022-09-26T05:13:54.094Z,18.30
2022-09-26T05:14:52.185Z,18.29
2022-09-26T05:15:52.213Z,18.26
2022-09-26T05:16:52.233Z,18.29
2022-09-26T05:17:52.174Z,18.30
2022-09-26T05:18:52.194Z,18.27
2022-09-26T05:19:52.163Z,18.26
2022-09-26T05:20:52.162Z,18.32
2022-09-26T05:21:52.163Z,18.23
2022-09-26T05:22:52.199Z,18.26
2022-09-26T05:23:52.153Z,18.29
2022-09-26T05:24:52.144Z,18.32
2022-09-26T05:25:52.144Z,18.30
2022-09-26T05:26:52.141Z,18.26
2022-09-26T05:27:52.151Z,18.33
2022-09-26T05:28:52.131Z,18.25
2022-09-26T05:29:52.146Z,18.30
2022-09-26T05:30:52.133Z,18.33
2022-09-26T05:31:52.223Z,18.30
2022-09-26T05:32:52.134Z,18.27
2022-09-26T05:33:52.122Z,18.29
2022-09-26T05:34:52.121Z,18.29
2022-09-26T05:35:52.111Z,18.33
2022-09-26T05:36:52.110Z,18.29
2022-09-26T05:37:52.116Z,18.36
2022-09-26T05:38:52.105Z,18.29
2022-09-26T05:39:52.097Z,18.32
2022-09-26T05:40:52.212Z,18.32
2022-09-26T05:41:52.093Z,18.36
2022-09-26T05:42:52.122Z,18.39
2022-09-26T05:43:52.107Z,18.39
2022-09-26T05:44:52.104Z,18.41
2022-09-26T05:45:52.079Z,18.42
2022-09-26T05:46:52.168Z,18.42
2022-09-26T05:47:52.081Z,18.37
2022-09-26T05:48:52.075Z,18.50
2022-09-26T05:49:52.071Z,18.45
2022-09-26T05:50:52.093Z,18.47
2022-09-26T05:51:52.075Z,18.47
2022-09-26T05:52:52.070Z,18.51
2022-09-26T05:53:52.061Z,18.52
2022-09-26T05:54:52.068Z,18.54
2022-09-26T05:55:52.054Z,18.47
2022-09-26T05:56:52.056Z,18.54
2022-09-26T05:57:52.053Z,18.52
2022-09-26T05:58:52.048Z,18.50
2022-09-26T05:59:52.076Z,18.60
2022-09-26T06:00:52.122Z,18.48
2022-09-26T06:01:52.150Z,18.54
2022-09-26T06:02:52.050Z,18.58
2022-09-26T06:03:52.053Z,18.52
2022-09-26T06:04:52.043Z,18.57
2022-09-26T06:05:52.038Z,18.54
2022-09-26T06:06:52.076Z,18.65
2022-09-26T06:07:52.030Z,18.51
2022-09-26T06:08:52.026Z,18.58
2022-09-26T06:09:52.033Z,18.63
2022-09-26T06:10:52.026Z,18.60
2022-09-26T06:11:52.040Z,18.65
2022-09-26T06:12:52.148Z,18.62
2022-09-26T06:13:52.034Z,18.58
2022-09-26T06:14:52.006Z,18.63
2022-09-26T06:17:06.660Z,18.70
2022-09-26T06:18:06.648Z,18.65
2022-09-26T06:19:06.783Z,18.72
2022-09-26T06:20:06.631Z,18.69
2022-09-26T06:21:06.636Z,18.69
2022-09-26T06:22:06.628Z,18.69
2022-09-26T06:23:06.637Z,18.69
2022-09-26T06:24:06.635Z,18.72
2022-09-26T06:25:06.632Z,18.70
2022-09-26T06:26:06.626Z,18.70
2022-09-26T06:27:06.617Z,18.67
2022-09-26T06:28:06.622Z,18.67
2022-09-26T06:29:06.709Z,18.67
2022-09-26T06:30:52.494Z,18.72
2022-09-26T06:31:52.523Z,18.70
2022-09-26T06:32:52.508Z,18.70
2022-09-26T06:33:52.488Z,18.70
2022-09-26T06:34:52.487Z,18.66
2022-09-26T06:35:52.484Z,18.69
2022-09-26T06:36:52.488Z,18.76
2022-09-26T06:37:52.473Z,18.69
2022-09-26T06:38:52.471Z,18.73
2022-09-26T06:39:56.998Z,18.67
2022-09-26T06:40:52.482Z,18.69
2022-09-26T06:41:52.457Z,18.76
2022-09-26T06:42:52.479Z,18.67
2022-09-26T06:43:52.462Z,18.73
2022-09-26T06:44:52.458Z,18.80
2022-09-26T06:45:52.460Z,18.67
2022-09-26T06:46:52.505Z,18.72
2022-09-26T06:47:52.449Z,18.72
2022-09-26T06:48:52.566Z,18.70
2022-09-26T06:49:52.438Z,18.73
2022-09-26T06:50:52.440Z,18.72
2022-09-26T06:51:52.438Z,18.70
2022-09-26T06:52:52.445Z,18.67
2022-09-26T06:53:52.425Z,18.75
2022-09-26T06:54:52.431Z,18.70
2022-09-26T06:55:52.433Z,18.67
2022-09-26T06:56:52.423Z,18.72
2022-09-26T06:57:52.435Z,18.73
2022-09-26T06:58:52.417Z,18.76
2022-09-26T06:59:52.421Z,18.69
2022-09-26T07:00:52.533Z,18.67
2022-09-26T07:01:52.550Z,18.72
2022-09-26T07:02:52.407Z,18.67
2022-09-26T07:03:54.340Z,18.72
2022-09-26T07:04:52.457Z,18.66
2022-09-26T07:05:52.417Z,18.67
2022-09-26T07:06:52.405Z,18.67
2022-09-26T07:07:52.407Z,18.70
2022-09-26T07:09:12.077Z,18.72
2022-09-26T07:09:52.403Z,18.75
2022-09-26T07:10:52.397Z,18.66
2022-09-26T07:12:13.538Z,18.70
2022-09-26T07:12:52.394Z,18.67
2022-09-26T07:13:52.382Z,18.73
2022-09-26T07:14:53.726Z,18.72
2022-09-26T07:15:52.430Z,18.72
2022-09-26T07:16:52.566Z,18.73
2022-09-26T07:17:52.386Z,18.70
2022-09-26T07:18:52.369Z,18.69
2022-09-26T07:19:52.376Z,18.70
2022-09-26T07:20:56.624Z,18.70
2022-09-26T07:21:52.363Z,18.73
2022-09-26T07:22:52.358Z,18.72
2022-09-26T07:23:52.362Z,18.72
2022-09-26T07:24:52.365Z,18.69
2022-09-26T07:25:52.372Z,18.73
2022-09-26T07:26:52.351Z,18.67
2022-09-26T07:27:52.359Z,18.69
2022-09-26T07:28:54.876Z,18.78
2022-09-26T07:29:52.348Z,18.76
2022-09-26T07:30:52.346Z,18.73
2022-09-26T07:31:52.413Z,18.66
2022-09-26T07:32:52.365Z,18.80
2022-09-26T07:33:52.340Z,18.67
2022-09-26T07:34:52.363Z,18.78
2022-09-26T07:35:52.340Z,18.69
2022-09-26T07:36:52.355Z,18.66
2022-09-26T07:37:52.339Z,18.67
2022-09-26T07:38:52.332Z,18.72
2022-09-26T07:39:54.189Z,18.66
2022-09-26T07:40:52.382Z,18.80
2022-09-26T07:41:52.321Z,18.72
2022-09-26T07:43:15.435Z,18.75
2022-09-26T07:45:21.929Z,18.69
2022-09-26T07:45:52.305Z,18.69
2022-09-26T07:46:52.402Z,18.63
2022-09-26T07:47:52.307Z,18.67
2022-09-26T07:48:52.307Z,18.70
2022-09-26T07:49:52.302Z,18.72
2022-09-26T07:50:52.296Z,18.66
2022-09-26T07:51:52.298Z,18.66
2022-09-26T07:52:52.323Z,18.73
2022-09-26T07:53:52.304Z,18.69
2022-09-26T07:54:52.312Z,18.73
2022-09-26T07:55:52.279Z,18.73
2022-09-26T07:56:52.286Z,18.75
2022-09-26T07:57:52.277Z,18.65
2022-09-26T07:58:52.291Z,18.70
2022-09-26T07:59:52.287Z,18.70
2022-09-26T08:00:52.304Z,18.70
2022-09-26T08:01:52.385Z,18.63
2022-09-26T08:02:52.331Z,18.70
2022-09-26T08:03:52.280Z,18.73
2022-09-26T08:04:52.271Z,18.80
2022-09-26T08:05:52.259Z,18.65
2022-09-26T08:06:52.261Z,18.70
2022-09-26T08:07:52.256Z,18.76
2022-09-26T08:08:52.360Z,18.60
2022-09-26T08:09:52.263Z,18.73
2022-09-26T08:10:52.248Z,18.72
2022-09-26T08:11:52.252Z,18.65
2022-09-26T08:12:52.248Z,18.70
2022-09-26T08:13:52.245Z,18.62
2022-09-26T08:14:52.245Z,18.55
2022-09-26T08:15:52.272Z,18.58
2022-09-26T08:16:52.245Z,18.65
2022-09-26T08:17:52.233Z,18.66
2022-09-26T08:18:52.299Z,18.67
2022-09-26T08:19:52.225Z,18.58
2022-09-26T08:20:52.236Z,18.58
2022-09-26T08:21:52.224Z,18.70
2022-09-26T08:22:52.223Z,18.65
2022-09-26T08:23:52.230Z,18.65
2022-09-26T08:24:52.247Z,18.62
2022-09-26T08:25:52.226Z,18.65
2022-09-26T08:26:52.220Z,18.65
2022-09-26T08:27:52.211Z,18.62
2022-09-26T08:28:52.279Z,18.63
2022-09-26T08:29:52.206Z,18.62
2022-09-26T08:30:52.262Z,18.62
2022-09-26T08:31:52.254Z,18.69
2022-09-26T08:32:52.205Z,18.67
2022-09-26T08:33:52.193Z,18.62
2022-09-26T08:34:52.199Z,18.62
2022-09-26T08:35:52.203Z,18.62
2022-09-26T08:36:52.182Z,18.62
2022-09-26T08:37:52.188Z,18.67
2022-09-26T08:38:52.325Z,18.67
2022-09-26T08:39:52.185Z,18.70
2022-09-26T08:40:52.293Z,18.60
2022-09-26T08:41:52.181Z,18.65
2022-09-26T08:42:52.193Z,18.67
2022-09-26T08:43:52.167Z,18.67
2022-09-26T08:44:52.164Z,18.67
2022-09-26T08:45:52.171Z,18.65
2022-09-26T08:46:52.253Z,18.69
2022-09-26T08:47:52.179Z,18.65
2022-09-26T08:48:52.154Z,18.65
2022-09-26T08:49:52.163Z,18.63
2022-09-26T08:50:52.164Z,18.66
2022-09-26T08:51:52.158Z,18.63
2022-09-26T08:52:52.157Z,18.65
2022-09-26T08:53:52.152Z,18.70
2022-09-26T08:54:52.147Z,18.63
2022-09-26T08:55:52.139Z,18.67
2022-09-26T08:56:52.155Z,18.65
2022-09-26T08:57:52.146Z,18.58
2022-09-26T08:58:52.143Z,18.66
2022-09-26T08:59:52.137Z,18.69
2022-09-26T09:00:52.125Z,18.58
2022-09-26T09:01:52.287Z,18.70
2022-09-26T09:02:52.220Z,18.67
2022-09-26T09:03:52.146Z,18.55
2022-09-26T09:04:54.080Z,18.60
2022-09-26T09:05:52.122Z,18.63
2022-09-26T09:06:52.136Z,18.60
2022-09-26T09:07:52.113Z,18.58
2022-09-26T09:08:52.123Z,18.70
2022-09-26T09:09:52.109Z,18.57
2022-09-26T09:10:52.117Z,18.65
2022-09-26T09:11:52.110Z,18.58
2022-09-26T09:12:52.112Z,18.55
2022-09-26T09:13:52.104Z,18.57
2022-09-26T09:15:07.922Z,18.62
2022-09-26T09:15:52.128Z,18.60
2022-09-26T09:16:52.093Z,18.60
2022-09-26T09:17:52.098Z,18.58
2022-09-26T09:18:52.091Z,18.62
2022-09-26T09:19:52.092Z,18.65
2022-09-26T09:20:52.087Z,18.60
2022-09-26T09:21:52.075Z,18.48
2022-09-26T09:22:52.090Z,18.55
2022-09-26T09:23:52.066Z,18.58
2022-09-26T09:24:52.074Z,18.67
2022-09-26T09:25:52.169Z,18.55
2022-09-26T09:27:52.719Z,18.57
2022-09-26T09:28:52.100Z,18.55
2022-09-26T09:29:52.076Z,18.55
2022-09-26T09:30:52.149Z,18.57
2022-09-26T09:31:52.047Z,18.57
2022-09-26T09:32:52.049Z,18.60
2022-09-26T09:33:52.054Z,18.54
2022-09-26T09:34:53.943Z,18.57
2022-09-26T09:35:52.058Z,18.54
2022-09-26T09:36:52.035Z,18.52
2022-09-26T09:37:52.045Z,18.57
2022-09-26T09:38:52.033Z,18.55
2022-09-26T09:39:52.037Z,18.52
2022-09-26T09:40:52.127Z,18.60
2022-09-26T09:41:52.042Z,18.58
2022-09-26T09:42:52.026Z,18.55
2022-09-26T09:43:52.030Z,18.51
2022-09-26T09:44:52.056Z,18.48
2022-09-26T09:45:52.019Z,18.54
2022-09-26T09:46:52.087Z,18.66
2022-09-26T09:47:52.007Z,18.62
2022-09-26T09:48:52.011Z,18.57
2022-09-26T09:49:52.015Z,18.62
2022-09-26T09:50:52.010Z,18.57
2022-09-26T09:51:52.018Z,18.57
2022-09-26T09:52:52.001Z,18.57
2022-09-26T09:53:51.998Z,18.55
2022-09-26T09:54:51.989Z,18.51
2022-09-26T09:55:51.994Z,18.55
2022-09-26T09:56:51.991Z,18.54
2022-09-26T09:57:51.999Z,18.51
2022-09-26T09:58:51.980Z,18.52
2022-09-26T09:59:51.978Z,18.52
2022-09-26T10:00:52.002Z,18.57
2022-09-26T10:01:51.997Z,18.57
2022-09-26T10:02:52.044Z,18.60
2022-09-26T10:03:51.973Z,18.54
2022-09-26T10:04:51.978Z,18.50
2022-09-26T10:05:51.978Z,18.52
2022-09-26T10:06:51.966Z,18.55
2022-09-26T10:07:51.966Z,18.54
2022-09-26T10:08:51.962Z,18.54
2022-09-26T10:09:51.974Z,18.60
2022-09-26T10:10:51.953Z,18.50
2022-09-26T10:11:52.730Z,18.60
2022-09-26T10:12:51.964Z,18.54
2022-09-26T10:13:51.962Z,18.50
2022-09-26T10:14:51.945Z,18.55
2022-09-26T10:15:51.977Z,18.50
2022-09-26T10:16:51.968Z,18.55
2022-09-26T10:18:12.782Z,18.54
2022-09-26T10:18:51.938Z,18.52
2022-09-26T10:19:51.927Z,18.57
2022-09-26T10:20:51.928Z,18.57
2022-09-26T10:21:51.931Z,18.57
2022-09-26T10:22:51.930Z,18.54
2022-09-26T10:23:51.937Z,18.57
2022-09-26T10:24:51.916Z,18.58
2022-09-26T10:25:51.929Z,18.57
2022-09-26T10:26:51.915Z,18.52
2022-09-26T10:27:51.920Z,18.52
2022-09-26T10:28:51.905Z,18.58
2022-09-26T10:29:51.912Z,18.50
2022-09-26T10:30:51.930Z,18.51
2022-09-26T10:31:52.022Z,18.52
2022-09-26T10:32:56.313Z,18.58
2022-09-26T10:33:51.893Z,18.62
2022-09-26T10:34:51.904Z,18.50
2022-09-26T10:35:51.892Z,18.50
2022-09-26T10:36:51.893Z,18.60
2022-09-26T10:37:51.887Z,18.57
2022-09-26T10:38:51.890Z,18.55
2022-09-26T10:39:51.883Z,18.57
2022-09-26T10:40:51.995Z,18.47
2022-09-26T10:41:51.878Z,18.57
2022-09-26T10:42:51.875Z,18.54
2022-09-26T10:43:51.888Z,18.58
2022-09-26T10:44:51.879Z,18.58
2022-09-26T10:46:33.812Z,18.52
2022-09-26T10:47:33.727Z,18.55
2022-09-26T10:48:33.760Z,18.60
2022-09-26T10:49:33.725Z,18.50
2022-09-26T10:50:33.745Z,18.58
2022-09-26T10:51:33.720Z,18.60
2022-09-26T10:52:33.719Z,18.55
2022-09-26T10:53:33.730Z,18.57
2022-09-26T10:54:33.728Z,18.55
2022-09-26T10:55:33.711Z,18.57
2022-09-26T10:56:33.715Z,18.51
2022-09-26T10:57:33.702Z,18.57
2022-09-26T10:58:33.709Z,18.58
2022-09-26T10:59:33.709Z,18.54
2022-09-26T11:00:33.714Z,18.58
2022-09-26T11:01:33.756Z,18.54
2022-09-26T11:02:33.692Z,18.48
2022-09-26T11:03:33.762Z,18.51
2022-09-26T11:04:33.748Z,18.58
2022-09-26T11:05:33.720Z,18.47
2022-09-26T11:06:33.694Z,18.58
2022-09-26T11:07:33.686Z,18.55
2022-09-26T11:08:33.686Z,18.58
2022-09-26T11:09:33.680Z,18.54
2022-09-26T11:10:33.674Z,18.58
2022-09-26T11:11:33.679Z,18.57
2022-09-26T11:12:33.672Z,18.51
2022-09-26T11:13:33.663Z,18.54
2022-09-26T11:14:33.666Z,18.58
2022-09-26T11:15:33.674Z,18.55
2022-09-26T11:16:37.163Z,18.60
2022-09-26T11:17:33.661Z,18.55
2022-09-26T11:18:33.660Z,18.50
2022-09-26T11:19:33.656Z,18.50
2022-09-26T11:20:33.677Z,18.60
2022-09-26T11:21:33.649Z,18.58
2022-09-26T11:22:33.649Z,18.50
2022-09-26T11:23:33.645Z,18.50
2022-09-26T11:24:33.643Z,18.52
2022-09-26T11:25:35.710Z,18.60
2022-09-26T11:26:33.659Z,18.50
2022-09-26T11:27:33.642Z,18.50
2022-09-26T11:28:33.638Z,18.57
2022-09-26T11:29:33.623Z,18.55
2022-09-26T11:30:33.635Z,18.52
2022-09-26T11:31:33.668Z,18.51
2022-09-26T11:32:33.629Z,18.50
2022-09-26T11:33:33.628Z,18.60
2022-09-26T11:34:33.615Z,18.52
2022-09-26T11:35:33.634Z,18.50
2022-09-26T11:36:33.643Z,18.54
2022-09-26T11:37:33.613Z,18.54
2022-09-26T11:38:33.608Z,18.50
2022-09-26T11:39:33.600Z,18.57
2022-09-26T11:40:33.686Z,18.51
2022-09-26T11:41:33.599Z,18.52
2022-09-26T11:42:33.601Z,18.51
2022-09-26T11:43:33.590Z,18.48
2022-09-26T11:44:33.594Z,18.58
2022-09-26T11:45:38.634Z,18.57
2022-09-26T11:46:33.651Z,18.54
2022-09-26T11:47:33.588Z,18.54
2022-09-26T11:48:33.608Z,18.55
2022-09-26T11:49:33.573Z,18.55
2022-09-26T11:50:33.579Z,18.55
2022-09-26T11:51:33.571Z,18.51
2022-09-26T11:52:33.616Z,18.48
2022-09-26T11:53:33.565Z,18.52
2022-09-26T11:54:33.576Z,18.60
2022-09-26T11:55:33.566Z,18.58
2022-09-26T11:56:33.568Z,18.52
2022-09-26T11:57:33.564Z,18.51
2022-09-26T11:58:33.579Z,18.51
2022-09-26T11:59:33.550Z,18.54
2022-09-26T12:00:33.551Z,18.57
2022-09-26T12:01:33.548Z,18.57
2022-09-26T12:02:33.657Z,18.54
2022-09-26T12:03:33.770Z,18.54
2022-09-26T12:04:33.539Z,18.55
2022-09-26T12:05:33.537Z,18.55
2022-09-26T12:06:33.669Z,18.55
2022-09-26T12:07:33.540Z,18.60
2022-09-26T12:08:33.556Z,18.54
2022-09-26T12:09:33.524Z,18.55
2022-09-26T12:10:33.523Z,18.54
2022-09-26T12:11:33.518Z,18.62
2022-09-26T12:12:38.233Z,18.63
2022-09-26T12:13:33.520Z,18.57
2022-09-26T12:14:33.523Z,18.51
2022-09-26T12:15:33.591Z,18.55
2022-09-26T12:16:33.569Z,18.58
2022-09-26T12:17:33.516Z,18.60
2022-09-26T12:18:33.505Z,18.60
2022-09-26T12:19:33.519Z,18.57
2022-09-26T12:20:33.505Z,18.51
2022-09-26T12:21:33.503Z,18.55
2022-09-26T12:22:33.489Z,18.52
2022-09-26T12:23:33.500Z,18.57
2022-09-26T12:24:33.508Z,18.51
2022-09-26T12:25:33.487Z,18.62
2022-09-26T12:26:33.488Z,18.58
2022-09-26T12:27:33.496Z,18.57
2022-09-26T12:28:33.486Z,18.51
2022-09-26T12:29:33.490Z,18.52
2022-09-26T12:30:33.483Z,18.54
2022-09-26T12:31:33.543Z,18.51
2022-09-26T12:32:33.475Z,18.57
2022-09-26T12:33:33.475Z,18.52
2022-09-26T12:34:33.466Z,18.52
2022-09-26T12:35:33.464Z,18.60
2022-09-26T12:36:33.460Z,18.51
2022-09-26T12:37:33.484Z,18.57
2022-09-26T12:38:33.455Z,18.60
2022-09-26T12:39:33.458Z,18.54
2022-09-26T12:40:33.557Z,18.54
2022-09-26T12:41:33.453Z,18.66
2022-09-26T12:42:33.447Z,18.57
2022-09-26T12:43:33.463Z,18.55
2022-09-26T12:44:33.433Z,18.57
2022-09-26T12:45:33.448Z,18.55
2022-09-26T12:46:33.536Z,18.57
2022-09-26T12:47:33.433Z,18.57
2022-09-26T12:48:33.439Z,18.51
2022-09-26T12:49:33.439Z,18.55
2022-09-26T12:50:33.430Z,18.54
2022-09-26T12:51:33.421Z,18.51
2022-09-26T12:52:33.432Z,18.54
2022-09-26T12:53:33.418Z,18.54
2022-09-26T12:54:33.419Z,18.51
2022-09-26T12:55:33.408Z,18.65
2022-09-26T12:56:33.438Z,18.55
2022-09-26T12:57:33.405Z,18.54
2022-09-26T12:58:33.411Z,18.57